Time;durP1;ratioP1;P1;durP2;ratioP2;P2;SDS_P1;SDS_P2;PMS_P1;PMS_P2;Temp;Humidity;BMP_temperature;BMP_pressure;BME280_temperature;BME280_humidity;BME280_pressure;Samples;Min_cycle;Max_cycle;Signal;HPM_P1;HPM_P2
2023/03/23 00:01:55;;;;;;;;;;;;;;;7.21;73.44;99833.47;4378289;32;34916;-80
2023/03/23 00:04:22;;;;;;;;;;;;;;;7.13;73.38;99838.19;4390528;32;33822;-82
2023/03/23 00:06:49;;;;;;;;;;;;;;;7.02;73.89;99836.66;4453742;32;33635;-80
2023/03/23 00:09:15;;;;;;;;;;;;;;;6.97;73.68;99833.78;4453652;32;34139;-81
2023/03/23 00:11:42;;;;;;;;;;;;;;;6.76;74.99;99830.84;4453899;32;34596;-80
2023/03/23 00:14:13;;;;;;;;;;;;;;;6.70;75.23;99838.16;4390072;32;33473;-80
2023/03/23 00:16:40;;;;;;;;;;;;;;;6.97;74.14;99823.47;4402664;32;33736;-80
2023/03/23 00:19:08;;;;;;;;;;;;;;;6.36;76.22;99833.53;4374293;32;34356;-81
2023/03/23 00:21:36;;;;;;;;;;;;;;;6.56;76.43;99833.87;4397748;32;33445;-79
2023/03/23 00:24:06;;;;;;;;;;;;;;;6.47;76.51;99826.47;4395325;32;34195;-81
2023/03/23 00:26:33;;;;;;;;;;;;;;;6.59;76.29;99828.94;4379221;32;33810;-80
2023/03/23 00:29:00;;;;;;;;;;;;;;;6.55;76.50;99830.41;4435871;32;33847;-81
2023/03/23 00:31:35;;;;;;;;;;;;;;;6.18;77.98;99827.25;4452989;32;34793;-81
2023/03/23 00:34:04;;;;;;;;;;;;;;;6.34;77.88;99824.84;4453047;32;34304;-82
2023/03/23 00:36:31;;;;;;;;;;;;;;;6.45;77.30;99818.69;4389129;32;33805;-80
2023/03/23 00:39:01;;;;;;;;;;;;;;;6.54;76.92;99814.88;4453366;32;34756;-80
2023/03/23 00:41:27;;;;;;;;;;;;;;;6.07;78.31;99817.19;4375215;32;34525;-81
2023/03/23 00:43:54;;;;;;;;;;;;;;;6.45;77.20;99816.09;4385007;32;33402;-81
2023/03/23 00:46:20;;;;;;;;;;;;;;;6.46;77.44;99823.00;4398397;32;34062;-81
2023/03/23 00:48:47;;;;;;;;;;;;;;;6.38;77.34;99821.66;4391221;32;35057;-82
2023/03/23 00:51:13;;;;;;;;;;;;;;;6.22;77.71;99827.53;4390045;32;34288;-81
2023/03/23 00:53:39;;;;;;;;;;;;;;;6.04;77.54;99822.12;4378522;32;32870;-81
2023/03/23 00:56:06;;;;;;;;;;;;;;;6.39;75.69;99819.97;4401692;32;34942;-81
2023/03/23 00:58:32;;;;;;;;;;;;;;;6.19;75.87;99819.63;4386019;32;33935;-81
2023/03/23 01:00:58;;;;;;;;;;;;;;;6.08;76.61;99818.97;4387658;32;34372;-82
2023/03/23 01:03:25;;;;;;;;;;;;;;;6.56;75.10;99810.72;4385883;32;33955;-81
2023/03/23 01:05:52;;;;;;;;;;;;;;;6.12;76.89;99809.75;4389044;32;34090;-82
2023/03/23 01:08:18;;;;;;;;;;;;;;;5.76;78.40;99803.16;4379383;32;34233;-81
2023/03/23 01:10:45;;;;;;;;;;;;;;;5.75;78.92;99809.06;4375036;32;34163;-81
2023/03/23 01:13:12;;;;;;;;;;;;;;;5.78;78.48;99806.72;4377763;32;34477;-80
2023/03/23 01:15:38;;;;;;;;;;;;;;;5.66;79.16;99802.56;4380043;32;34011;-81
2023/03/23 01:18:05;;;;;;;;;;;;;;;5.55;79.95;99811.25;4359936;32;32795;-82
2023/03/23 01:20:31;;;;;;;;;;;;;;;5.76;79.41;99808.31;4388665;32;34484;-80
2023/03/23 01:23:00;;;;;;;;;;;;;;;5.90;78.37;99799.78;4375443;32;34246;-81
2023/03/23 01:25:31;;;;;;;;;;;;;;;6.00;77.88;99809.87;4383456;32;34760;-80
2023/03/23 01:27:57;;;;;;;;;;;;;;;6.08;77.49;99797.50;4395135;32;33305;-82
2023/03/23 01:30:23;;;;;;;;;;;;;;;5.82;77.84;99799.28;4393124;32;34035;-81
2023/03/23 01:32:50;;;;;;;;;;;;;;;6.08;76.98;99795.84;4381977;32;33728;-81
2023/03/23 01:35:16;;;;;;;;;;;;;;;6.26;75.92;99796.06;4396261;32;34191;-81
2023/03/23 01:37:42;;;;;;;;;;;;;;;6.31;75.63;99791.19;4386351;32;33919;-82
2023/03/23 01:40:09;;;;;;;;;;;;;;;6.14;75.52;99784.12;4407289;32;34128;-81
2023/03/23 01:42:37;;;;;;;;;;;;;;;5.62;77.38;99798.03;4382347;32;33992;-79
2023/03/23 01:45:16;;;;;;;;;;;;;;;5.61;77.80;99788.53;4378430;32;33799;-81
2023/03/23 01:47:42;;;;;;;;;;;;;;;5.42;79.12;99790.69;4380021;32;34033;-81
2023/03/23 01:50:08;;;;;;;;;;;;;;;5.47;79.51;99789.34;4386079;32;35200;-81
2023/03/23 01:52:36;;;;;;;;;;;;;;;5.39;79.59;99790.50;4375764;32;34063;-81
2023/03/23 01:55:03;;;;;;;;;;;;;;;5.32;80.22;99790.09;4389305;32;34154;-79
2023/03/23 01:57:29;;;;;;;;;;;;;;;5.32;80.37;99790.09;4378827;32;34498;-79
2023/03/23 01:59:57;;;;;;;;;;;;;;;5.39;79.91;99795.63;4366106;32;34182;-79
2023/03/23 02:02:24;;;;;;;;;;;;;;;5.44;79.68;99789.13;4372851;32;33078;-81
2023/03/23 02:04:51;;;;;;;;;;;;;;;5.16;81.03;99784.75;4382814;32;34115;-80
2023/03/23 02:07:18;;;;;;;;;;;;;;;5.20;80.91;99786.75;4384460;32;33606;-81
2023/03/23 02:09:44;;;;;;;;;;;;;;;5.32;80.27;99782.38;4401602;32;33552;-80
2023/03/23 02:12:11;;;;;;;;;;;;;;;5.47;79.38;99792.78;4384080;32;33417;-81
2023/03/23 02:14:37;;;;;;;;;;;;;;;5.60;78.85;99785.84;4376940;32;33897;-82
2023/03/23 02:17:13;;;;;;;;;;;;;;;5.58;78.67;99787.44;4374249;32;34244;-81
2023/03/23 02:19:42;;;;;;;;;;;;;;;5.41;79.46;99794.97;4389807;32;34036;-80
2023/03/23 02:22:08;;;;;;;;;;;;;;;5.79;78.30;99793.06;4405895;32;34240;-80
2023/03/23 02:24:35;;;;;;;;;;;;;;;5.78;77.48;99791.28;4405728;32;33682;-81
2023/03/23 02:27:16;;;;;;;;;;;;;;;5.53;78.08;99789.72;4400978;32;33524;-79
2023/03/23 02:29:47;;;;;;;;;;;;;;;5.52;78.24;99793.06;4365466;32;34113;-81
2023/03/23 02:32:35;;;;;;;;;;;;;;;5.48;78.75;99788.53;4384741;32;33198;-81
2023/03/23 02:35:02;;;;;;;;;;;;;;;5.49;79.62;99798.91;4400153;32;34220;-80
2023/03/23 02:37:34;;;;;;;;;;;;;;;4.90;82.16;99798.41;4373966;32;33906;-81
2023/03/23 02:40:08;;;;;;;;;;;;;;;5.47;79.79;99799.59;4393986;32;34243;-80
2023/03/23 02:42:36;;;;;;;;;;;;;;;5.58;78.70;99802.84;4385160;32;33578;-80
2023/03/23 02:45:03;;;;;;;;;;;;;;;5.85;78.49;99796.91;4379843;32;33802;-79
2023/03/23 02:47:29;;;;;;;;;;;;;;;6.18;75.84;99793.81;4379943;32;33736;-80
2023/03/23 02:49:56;;;;;;;;;;;;;;;5.75;76.34;99801.38;4383651;32;34188;-81
2023/03/23 02:52:23;;;;;;;;;;;;;;;6.31;74.43;99796.34;4392194;32;34078;-80
2023/03/23 02:54:50;;;;;;;;;;;;;;;5.87;75.17;99799.56;4361556;32;32509;-80
2023/03/23 02:57:17;;;;;;;;;;;;;;;5.63;75.83;99807.50;4392614;32;34790;-81
2023/03/23 02:59:43;;;;;;;;;;;;;;;5.68;75.70;99800.97;4376939;32;35074;-81
2023/03/23 03:02:14;;;;;;;;;;;;;;;5.30;77.04;99795.94;4387245;32;33240;-80
2023/03/23 03:04:41;;;;;;;;;;;;;;;5.25;78.34;99798.22;4382988;32;35042;-80
2023/03/23 03:07:27;;;;;;;;;;;;;;;5.36;77.50;99800.59;4371544;32;33655;-79
2023/03/23 03:10:11;;;;;;;;;;;;;;;4.72;81.11;99798.97;4384010;32;35133;-81
2023/03/23 03:12:51;;;;;;;;;;;;;;;4.77;81.38;99804.44;4373592;32;34307;-81
2023/03/23 03:15:22;;;;;;;;;;;;;;;4.40;83.42;99804.44;4364560;32;33215;-79
2023/03/23 03:17:51;;;;;;;;;;;;;;;4.42;84.17;99802.87;4378953;32;34053;-80
2023/03/23 03:20:18;;;;;;;;;;;;;;;5.00;82.24;99800.81;4375399;32;34236;-80
2023/03/23 03:22:45;;;;;;;;;;;;;;;5.28;80.12;99798.41;4373343;32;33690;-81
2023/03/23 03:25:15;;;;;;;;;;;;;;;4.97;81.67;99804.88;4375430;32;34103;-81
2023/03/23 03:27:43;;;;;;;;;;;;;;;5.19;80.37;99805.47;4378130;32;33169;-80
2023/03/23 03:30:11;;;;;;;;;;;;;;;5.27;80.75;99806.91;4380211;32;34509;-80
2023/03/23 03:32:41;;;;;;;;;;;;;;;5.65;78.47;99808.47;4367798;32;33692;-81
2023/03/23 03:35:07;;;;;;;;;;;;;;;5.57;77.93;99812.25;4368651;32;34139;-81
2023/03/23 03:37:38;;;;;;;;;;;;;;;5.35;78.25;99803.94;4383885;32;34868;-80
2023/03/23 03:40:10;;;;;;;;;;;;;;;5.45;77.03;99817.47;4388862;32;33541;-81
2023/03/23 03:42:38;;;;;;;;;;;;;;;5.45;76.14;99814.03;4389369;32;33912;-80
2023/03/23 03:45:05;;;;;;;;;;;;;;;5.70;75.15;99819.97;4377305;32;33552;-81
2023/03/23 03:47:31;;;;;;;;;;;;;;;5.89;74.18;99810.84;4362845;32;33349;-79
2023/03/23 03:49:58;;;;;;;;;;;;;;;5.36;75.78;99816.00;4379688;32;34586;-82
2023/03/23 03:52:24;;;;;;;;;;;;;;;5.31;76.22;99814.03;4386144;32;33368;-81
2023/03/23 03:54:50;;;;;;;;;;;;;;;5.06;77.43;99815.72;4386517;32;33654;-80
2023/03/23 03:57:17;;;;;;;;;;;;;;;5.32;76.72;99826.06;4402489;32;34441;-80
2023/03/23 03:59:45;;;;;;;;;;;;;;;5.55;75.82;99824.09;4387994;32;34489;-81
2023/03/23 04:02:16;;;;;;;;;;;;;;;5.58;75.16;99824.31;4366859;32;33352;-81
2023/03/23 04:04:43;;;;;;;;;;;;;;;5.20;77.57;99827.81;4415613;32;33695;-81
2023/03/23 04:07:13;;;;;;;;;;;;;;;5.01;78.67;99832.53;4421305;32;34636;-80
2023/03/23 04:09:40;;;;;;;;;;;;;;;5.21;77.60;99827.00;4397509;32;35016;-80
2023/03/23 04:12:08;;;;;;;;;;;;;;;5.07;79.23;99833.81;4442326;32;33680;-81
2023/03/23 04:14:36;;;;;;;;;;;;;;;4.82;80.55;99830.38;4400314;32;32235;-81
2023/03/23 04:17:02;;;;;;;;;;;;;;;4.84;80.56;99829.69;4417559;32;33895;-81
2023/03/23 04:19:32;;;;;;;;;;;;;;;4.64;81.49;99835.16;4429101;32;33861;-80
2023/03/23 04:21:59;;;;;;;;;;;;;;;4.99;80.56;99828.97;4404145;32;33979;-80
2023/03/23 04:24:28;;;;;;;;;;;;;;;4.80;80.84;99827.72;4422453;32;34544;-81
2023/03/23 04:26:54;;;;;;;;;;;;;;;4.80;80.99;99827.72;4414427;32;33883;-80
2023/03/23 04:29:21;;;;;;;;;;;;;;;5.44;78.77;99830.22;4407431;32;34477;-81
2023/03/23 04:31:50;;;;;;;;;;;;;;;5.50;76.65;99830.63;4406878;32;33574;-80
2023/03/23 04:34:18;;;;;;;;;;;;;;;5.35;76.85;99839.88;4390713;32;32992;-80
2023/03/23 04:36:46;;;;;;;;;;;;;;;5.02;77.26;99834.28;4453833;32;34067;-80
2023/03/23 04:39:13;;;;;;;;;;;;;;;5.20;76.67;99829.50;4412179;32;34725;-80
2023/03/23 04:41:39;;;;;;;;;;;;;;;5.15;76.55;99831.75;4381258;32;33205;-80
2023/03/23 04:44:07;;;;;;;;;;;;;;;5.22;76.19;99827.94;4386383;32;34609;-80
2023/03/23 04:46:33;;;;;;;;;;;;;;;5.49;75.33;99828.84;4411014;32;34833;-81
2023/03/23 04:49:01;;;;;;;;;;;;;;;5.49;75.29;99834.00;4391182;32;34272;-81
2023/03/23 04:51:31;;;;;;;;;;;;;;;5.39;75.77;99837.62;4415903;32;33348;-81
2023/03/23 04:53:59;;;;;;;;;;;;;;;5.88;74.46;99835.66;4390112;32;34416;-80
2023/03/23 04:56:28;;;;;;;;;;;;;;;5.41;75.61;99825.78;4436205;32;33953;-80
2023/03/23 04:58:55;;;;;;;;;;;;;;;5.37;76.45;99833.16;4386040;32;35340;-81
2023/03/23 05:01:22;;;;;;;;;;;;;;;5.67;75.10;99829.16;4427409;32;34014;-81
2023/03/23 05:03:49;;;;;;;;;;;;;;;5.97;73.43;99830.25;4434091;32;33553;-80
2023/03/23 05:06:16;;;;;;;;;;;;;;;6.03;73.17;99835.78;4387691;32;35087;-80
2023/03/23 05:08:42;;;;;;;;;;;;;;;5.76;74.02;99841.72;4442171;32;34520;-80
2023/03/23 05:11:10;;;;;;;;;;;;;;;5.65;74.00;99847.03;4418194;32;34152;-80
2023/03/23 05:13:37;;;;;;;;;;;;;;;5.37;75.50;99843.44;4398296;32;33812;-80
2023/03/23 05:16:04;;;;;;;;;;;;;;;5.39;75.77;99841.87;4434225;32;34135;-81
2023/03/23 05:18:32;;;;;;;;;;;;;;;5.98;74.13;99837.16;4398217;32;34428;-81
2023/03/23 05:21:00;;;;;;;;;;;;;;;5.59;75.01;99841.50;4376942;32;33620;-81
2023/03/23 05:23:27;;;;;;;;;;;;;;;5.84;73.77;99843.09;4416392;32;34072;-80
2023/03/23 05:25:54;;;;;;;;;;;;;;;5.63;74.95;99848.63;4393592;32;34363;-81
2023/03/23 05:28:21;;;;;;;;;;;;;;;5.74;75.38;99841.63;4378327;32;31952;-81
2023/03/23 05:30:48;;;;;;;;;;;;;;;5.46;77.06;99838.91;4376102;32;33637;-81
2023/03/23 05:33:16;;;;;;;;;;;;;;;5.59;76.48;99838.94;4386407;32;34238;-80
2023/03/23 05:35:42;;;;;;;;;;;;;;;6.17;74.90;99843.47;4434889;32;33582;-80
2023/03/23 05:38:09;;;;;;;;;;;;;;;6.26;74.56;99854.34;4376423;32;34890;-80
2023/03/23 05:40:37;;;;;;;;;;;;;;;6.48;73.62;99836.84;4403247;32;34171;-82
2023/03/23 05:43:04;;;;;;;;;;;;;;;6.60;73.26;99838.41;4427957;32;34319;-80
2023/03/23 05:45:31;;;;;;;;;;;;;;;6.94;72.12;99832.72;4414894;32;34118;-80
2023/03/23 05:47:57;;;;;;;;;;;;;;;6.58;73.51;99832.28;4440949;32;35113;-80
2023/03/23 05:50:24;;;;;;;;;;;;;;;6.55;73.05;99829.50;4406041;32;34340;-81
2023/03/23 05:52:52;;;;;;;;;;;;;;;6.93;72.55;99830.94;4431259;32;33836;-81
2023/03/23 05:55:19;;;;;;;;;;;;;;;7.12;71.64;99833.81;4428511;32;33739;-81
2023/03/23 05:57:47;;;;;;;;;;;;;;;7.44;70.64;99837.38;4379523;32;35120;-80
2023/03/23 06:00:14;;;;;;;;;;;;;;;7.53;70.54;99827.56;4387993;32;33402;-81
2023/03/23 06:02:45;;;;;;;;;;;;;;;7.98;68.24;99833.56;4410354;32;34802;-79
2023/03/23 06:05:13;;;;;;;;;;;;;;;7.94;68.55;99831.63;4413177;32;34636;-81
2023/03/23 06:07:40;;;;;;;;;;;;;;;8.08;68.18;99820.38;4388818;32;31762;-80
2023/03/23 06:10:07;;;;;;;;;;;;;;;8.05;68.44;99827.97;4400349;32;34046;-81
2023/03/23 06:12:33;;;;;;;;;;;;;;;8.26;68.03;99820.47;4428993;32;33925;-82
2023/03/23 06:15:00;;;;;;;;;;;;;;;8.43;67.40;99823.13;4381660;32;34259;-80
2023/03/23 06:17:27;;;;;;;;;;;;;;;8.89;66.12;99820.38;4430027;32;34313;-80
2023/03/23 06:19:55;;;;;;;;;;;;;;;8.66;66.60;99826.94;4398199;32;33247;-80
2023/03/23 06:22:21;;;;;;;;;;;;;;;8.66;66.91;99816.59;4390957;32;33443;-81
2023/03/23 06:24:48;;;;;;;;;;;;;;;9.07;66.25;99824.72;4385486;32;34000;-82
2023/03/23 06:27:17;;;;;;;;;;;;;;;9.01;66.70;99820.13;4398728;32;34640;-81
2023/03/23 06:29:43;;;;;;;;;;;;;;;9.08;66.65;99817.03;4398232;32;31903;-82
2023/03/23 06:32:10;;;;;;;;;;;;;;;9.39;66.63;99814.28;4402456;32;34035;-83
2023/03/23 06:34:36;;;;;;;;;;;;;;;9.53;66.63;99817.56;4388021;32;34244;-80
2023/03/23 06:37:05;;;;;;;;;;;;;;;9.49;66.83;99805.28;4394989;32;33813;-83
2023/03/23 06:39:31;;;;;;;;;;;;;;;9.48;67.15;99808.69;4416163;32;34363;-83
2023/03/23 06:41:59;;;;;;;;;;;;;;;9.40;68.24;99820.34;4404319;32;34150;-83
2023/03/23 06:44:26;;;;;;;;;;;;;;;9.21;69.73;99816.84;4372789;32;34091;-81
2023/03/23 06:46:53;;;;;;;;;;;;;;;9.12;69.57;99821.56;4412216;32;34835;-81
2023/03/23 06:49:19;;;;;;;;;;;;;;;9.40;68.56;99816.06;4399467;32;32967;-80
2023/03/23 06:51:46;;;;;;;;;;;;;;;9.90;67.17;99824.50;4407443;32;33936;-81
2023/03/23 06:54:12;;;;;;;;;;;;;;;10.24;66.27;99821.81;4391835;32;34202;-79
2023/03/23 06:56:39;;;;;;;;;;;;;;;10.14;66.11;99819.63;4397599;32;35035;-81
2023/03/23 06:59:07;;;;;;;;;;;;;;;10.51;65.19;99821.34;4389262;32;32625;-81
2023/03/23 07:01:33;;;;;;;;;;;;;;;10.68;64.27;99822.09;4368856;32;33908;-85
2023/03/23 07:04:00;;;;;;;;;;;;;;;11.14;63.19;99831.84;4406447;32;34669;-77
2023/03/23 07:06:27;;;;;;;;;;;;;;;11.05;63.13;99830.56;4387100;32;34439;-80
2023/03/23 07:08:54;;;;;;;;;;;;;;;11.17;62.64;99831.13;4405449;32;33530;-78
2023/03/23 07:11:21;;;;;;;;;;;;;;;11.56;61.99;99821.50;4413949;32;34898;-80
2023/03/23 07:13:47;;;;;;;;;;;;;;;11.55;62.27;99829.22;4396801;32;34790;-78
2023/03/23 07:16:14;;;;;;;;;;;;;;;11.85;61.57;99828.72;4412741;32;34808;-80
2023/03/23 07:18:40;;;;;;;;;;;;;;;11.74;61.26;99828.28;4389191;32;32973;-77
2023/03/23 07:21:06;;;;;;;;;;;;;;;11.85;61.05;99834.78;4418984;32;34718;-78
2023/03/23 07:23:33;;;;;;;;;;;;;;;11.72;61.48;99837.72;4421162;32;33941;-80
2023/03/23 07:26:00;;;;;;;;;;;;;;;12.18;60.36;99829.19;4378805;32;34534;-78
2023/03/23 07:28:27;;;;;;;;;;;;;;;12.34;59.45;99831.56;4436660;32;34392;-78
2023/03/23 07:30:54;;;;;;;;;;;;;;;12.35;59.33;99833.31;4397352;32;33415;-79
2023/03/23 07:33:21;;;;;;;;;;;;;;;12.36;59.93;99832.50;4411196;32;34814;-77
2023/03/23 07:35:48;;;;;;;;;;;;;;;12.34;60.00;99828.97;4435839;32;34619;-77
2023/03/23 07:38:15;;;;;;;;;;;;;;;12.58;59.43;99835.91;4425450;32;33934;-79
2023/03/23 07:40:43;;;;;;;;;;;;;;;12.92;58.52;99837.12;4429624;32;32330;-77
2023/03/23 07:43:10;;;;;;;;;;;;;;;12.94;57.73;99832.84;4423663;32;33817;-78
2023/03/23 07:45:38;;;;;;;;;;;;;;;12.86;57.70;99837.78;4436381;32;34865;-80
2023/03/23 07:48:05;;;;;;;;;;;;;;;13.18;57.18;99838.94;4432903;32;34374;-78
2023/03/23 07:50:32;;;;;;;;;;;;;;;13.41;57.05;99844.06;4406640;32;34666;-79
2023/03/23 07:52:59;;;;;;;;;;;;;;;13.83;55.95;99838.53;4405634;32;33918;-77
2023/03/23 07:55:27;;;;;;;;;;;;;;;14.06;54.53;99835.75;4417056;32;34225;-80
2023/03/23 07:57:54;;;;;;;;;;;;;;;14.45;53.33;99837.81;4423806;32;32782;-81
2023/03/23 08:00:23;;;;;;;;;;;;;;;14.35;53.10;99840.16;4406785;32;34155;-77
2023/03/23 08:02:55;;;;;;;;;;;;;;;14.05;52.86;99834.00;4372122;32;33482;-81
2023/03/23 08:05:21;;;;;;;;;;;;;;;14.37;53.06;99837.59;4396629;32;35188;-78
2023/03/23 08:07:49;;;;;;;;;;;;;;;14.01;51.45;99837.34;4390395;32;33127;-80
2023/03/23 08:10:17;;;;;;;;;;;;;;;14.35;52.62;99840.16;4412353;32;34903;-77
2023/03/23 08:12:44;;;;;;;;;;;;;;;14.41;49.42;99839.44;4403036;32;33649;-79
2023/03/23 08:15:14;;;;;;;;;;;;;;;14.60;49.72;99834.78;4397304;32;34087;-79
2023/03/23 08:17:41;;;;;;;;;;;;;;;14.83;48.98;99838.06;4410414;32;33422;-77
2023/03/23 08:20:12;;;;;;;;;;;;;;;14.74;46.78;99843.91;4402293;32;34758;-78
2023/03/23 08:22:39;;;;;;;;;;;;;;;15.27;48.02;99846.22;4372558;32;33885;-77
2023/03/23 08:25:07;;;;;;;;;;;;;;;15.33;46.59;99849.00;4397117;32;34212;-79
2023/03/23 08:27:33;;;;;;;;;;;;;;;16.36;45.51;99845.41;4402797;32;33661;-78
2023/03/23 08:30:00;;;;;;;10.13;6.12;;;;;;;16.30;45.57;99848.75;4393492;32;34895;-77
2023/03/23 08:32:27;;;;;;;;;;;;;;;16.04;45.08;99845.56;4384527;32;33794;-79
2023/03/23 08:34:54;;;;;;;;;;;;;;;15.96;44.85;99850.59;4396606;32;34562;-78
2023/03/23 08:37:21;;;;;;;;;;;;;;;16.08;44.94;99850.00;4378609;32;85014;-82
2023/03/23 08:39:53;;;;;;;;;;;;;;;16.35;43.51;99849.75;4408926;32;34107;-79
2023/03/23 08:42:20;;;;;;;;;;;;;;;16.62;44.11;99849.47;4388551;32;34625;-77
2023/03/23 08:44:46;;;;;;;;;;;;;;;16.57;44.23;99843.25;4392697;32;34452;-79
2023/03/23 08:47:13;;;;;;;;;;;;;;;17.29;43.20;99854.31;4392456;32;33425;-79
2023/03/23 08:49:39;;;;;;;;;;;;;;;18.44;40.34;99844.81;4409316;32;33417;-77
2023/03/23 08:52:07;;;;;;;;;;;;;;;17.55;41.59;99846.03;4390703;32;33506;-79
2023/03/23 08:54:33;;;;;;;;;;;;;;;17.13;42.84;99849.63;4418892;32;35187;-78
2023/03/23 08:57:00;;;;;;;;;;;;;;;17.26;43.32;99849.00;4405138;32;33307;-77
2023/03/23 08:59:27;;;;;;;;;;;;;;;17.19;42.91;99849.72;4389154;32;32585;-78
2023/03/23 09:01:54;;;;;;;;;;;;;;;17.20;43.81;99841.91;4427831;32;34039;-79
2023/03/23 09:04:20;;;;;;;;;;;;;;;17.04;43.79;99846.00;4425838;32;34202;-78
2023/03/23 09:06:47;;;;;;;;;;;;;;;16.71;43.62;99844.44;4416390;32;33537;-79
2023/03/23 09:09:14;;;;;;;;;;;;;;;16.93;44.44;99844.91;4409799;32;33417;-80
2023/03/23 09:11:40;;;;;;;;;;;;;;;17.10;43.10;99838.25;4410246;32;33066;-77
2023/03/23 09:14:07;;;;;;;;;;;;;;;17.85;42.56;99840.47;4387672;32;35084;-78
2023/03/23 09:16:34;;;;;;;;;;;;;;;18.84;40.06;99837.47;4395937;32;33960;-79
2023/03/23 09:19:00;;;;;;;;;;;;;;;18.62;41.19;99831.94;4429743;32;34027;-77
2023/03/23 09:21:27;;;;;;;;;;;;;;;17.91;41.92;99839.69;4405643;32;33988;-80
2023/03/23 09:23:58;;;;;;;;;;;;;;;17.37;40.88;99837.00;4405878;32;33882;-77
2023/03/23 09:26:26;;;;;;;;;;;;;;;17.29;42.39;99830.75;4393137;32;33199;-80
2023/03/23 09:28:52;;;;;;;;;;;;;;;17.62;42.60;99842.66;4383531;32;32646;-78
2023/03/23 09:31:22;;;;;;;;;;;;;;;18.60;40.92;99832.75;4391276;32;34946;-77
2023/03/23 09:33:51;;;;;;;;;;;;;;;18.57;40.49;99833.63;4411895;32;34339;-80
2023/03/23 09:36:21;;;;;;;14.10;8.55;;;;;;;18.56;40.99;99834.50;4396721;32;34436;-81
2023/03/23 09:38:48;;;;;;;14.40;9.10;;;;;;;18.50;41.37;99831.75;4371413;32;33933;-79
2023/03/23 09:41:38;;;;;;;14.30;9.35;;;;;;;19.53;40.71;99829.41;4414539;32;34380;-78
2023/03/23 09:44:39;;;;;;;14.10;9.23;;;;;;;19.40;38.25;99826.69;4428768;32;34911;-80
2023/03/23 09:47:25;;;;;;;16.33;9.00;;;;;;;19.47;39.88;99830.28;4411315;32;34295;-80
2023/03/23 09:49:57;;;;;;;;;;;;;;;20.79;37.13;99814.50;4436728;32;33815;-80
2023/03/23 09:52:35;;;;;;;9.93;7.20;;;;;;;19.98;38.04;99813.16;4389991;32;32976;-78
2023/03/23 09:55:02;;;;;;;12.18;7.55;;;;;;;19.38;38.38;99815.28;4415610;32;34449;-77
2023/03/23 09:57:40;;;;;;;11.70;7.82;;;;;;;20.20;37.11;99802.78;4409956;32;33740;-78
2023/03/23 10:00:37;;;;;;;15.23;7.72;;;;;;;20.39;36.89;99798.50;4403641;32;34571;-76
2023/03/23 10:03:18;;;;;;;10.52;6.40;;;;;;;20.46;38.24;99805.56;4409627;32;33352;-78
2023/03/23 10:05:50;;;;;;;11.52;7.55;;;;;;;19.87;37.50;99809.59;4378349;32;33844;-79
2023/03/23 10:08:22;;;;;;;10.85;7.12;;;;;;;19.96;38.03;99806.16;4388889;32;32814;-79
2023/03/23 10:11:03;;;;;;;9.90;6.95;;;;;;;19.66;38.16;99799.75;4366703;32;33394;-82
2023/03/23 10:13:30;;;;;;;;;;;;;;;20.91;36.61;99798.72;4438412;32;33827;-77
2023/03/23 10:15:57;;;;;;;11.65;6.75;;;;;;;21.59;35.27;99790.94;4409755;32;35127;-76
2023/03/23 10:18:36;;;;;;;10.98;7.25;;;;;;;19.84;37.39;99786.78;4407297;32;34272;-78
2023/03/23 10:21:03;;;;;;;;;;;;;;;19.57;38.28;99778.69;4409641;32;34017;-80
2023/03/23 10:23:51;;;;;;;;;;;;;;;19.64;39.52;99785.72;4422755;32;34878;-78
2023/03/23 10:26:24;;;;;;;12.07;7.00;;;;;;;20.23;38.21;99771.25;4431339;32;33048;-80
2023/03/23 10:28:55;;;;;;;9.75;6.68;;;;;;;20.62;37.80;99773.19;4394677;32;33486;-79
2023/03/23 10:31:33;;;;;;;12.70;6.18;;;;;;;20.59;36.11;99764.37;4366345;32;33481;-78
2023/03/23 10:34:07;;;;;;;10.50;6.37;;;;;;;20.90;37.21;99759.22;4374963;32;33437;-82
2023/03/23 10:36:37;;;;;;;9.32;5.25;;;;;;;21.17;36.97;99758.38;4396987;32;33717;-77
2023/03/23 10:39:17;;;;;;;9.73;4.45;;;;;;;21.02;36.38;99744.34;4381032;32;34043;-81
2023/03/23 10:41:44;;;;;;;9.50;5.53;;;;;;;20.53;36.59;99749.47;4371044;32;34560;-78
2023/03/23 10:44:20;;;;;;;9.18;4.87;;;;;;;20.93;37.23;99746.06;4442792;32;34573;-78
2023/03/23 10:47:00;;;;;;;10.50;4.68;;;;;;;20.38;37.22;99747.66;4381774;32;34123;-81
2023/03/23 10:49:34;;;;;;;7.53;4.40;;;;;;;20.53;36.53;99744.22;4422806;32;33588;-80
2023/03/23 10:52:22;;;;;;;9.38;4.68;;;;;;;20.53;36.47;99738.94;4377626;32;33955;-79
2023/03/23 10:55:18;;;;;;;5.45;3.20;;;;;;;20.72;36.54;99744.28;4429231;32;33672;-80
2023/03/23 10:57:46;;;;;;;5.25;2.65;;;;;;;20.06;36.61;99739.59;4433361;32;34457;-81
2023/03/23 11:00:28;;;;;;;;;;;;;;;19.66;37.02;99741.94;4383888;32;33650;-79
2023/03/23 11:03:02;;;;;;;;;;;;;;;19.58;37.20;99743.66;4371601;32;34106;-79
2023/03/23 11:05:46;;;;;;;;;;;;;;;19.74;38.25;99749.91;4408898;32;35153;-81
2023/03/23 11:08:13;;;;;;;;;;;;;;;19.60;37.82;99752.41;4372113;32;35140;-79
2023/03/23 11:10:41;;;;;;;;;;;;;;;19.88;37.00;99740.38;4362723;32;33673;-79
2023/03/23 11:13:15;;;;;;;4.45;2.40;;;;;;;20.16;37.06;99738.75;4428277;32;34064;-78
2023/03/23 11:15:45;;;;;;;9.27;2.15;;;;;;;20.52;35.60;99734.53;4401116;32;34335;-78
2023/03/23 11:18:17;;;;;;;4.20;2.25;;;;;;;20.72;35.51;99729.34;4385680;32;34037;-78
2023/03/23 11:20:50;;;;;;;3.72;2.10;;;;;;;20.34;35.34;99726.56;4402012;32;33876;-78
2023/03/23 11:23:21;;;;;;;3.65;1.92;;;;;;;20.34;35.05;99722.22;4402714;32;33917;-79
2023/03/23 11:25:56;;;;;;;4.70;2.00;;;;;;;20.20;35.00;99706.38;4417824;32;34683;-80
2023/03/23 11:28:25;;;;;;;;;;;;;;;20.07;35.50;99701.94;4383461;32;34641;-78
2023/03/23 11:30:53;;;;;;;;;;;;;;;20.00;36.21;99708.03;4407077;32;33597;-80
2023/03/23 11:33:19;;;;;;;3.85;2.08;;;;;;;19.86;36.06;99704.44;4408317;32;32493;-78
2023/03/23 11:35:46;;;;;;;5.03;2.30;;;;;;;20.06;36.22;99715.94;4421135;32;34705;-78
2023/03/23 11:38:19;;;;;;;5.15;2.10;;;;;;;19.66;36.22;99710.41;4421838;32;34161;-78
2023/03/23 11:40:51;;;;;;;3.90;2.10;;;;;;;19.82;35.27;99717.56;4427643;32;33950;-80
2023/03/23 11:43:24;;;;;;;5.57;2.17;;;;;;;20.07;35.45;99722.06;4429488;32;33172;-80
2023/03/23 11:46:32;;;;;;;4.50;2.37;;;;;;;20.04;34.96;99728.19;4424952;32;33371;-81
2023/03/23 11:49:03;;;;;;;4.85;1.85;;;;;;;20.46;34.65;99710.84;4392990;32;34416;-80
2023/03/23 11:51:46;;;;;;;6.43;1.98;;;;;;;20.36;34.63;99704.69;4388338;32;34059;-79
2023/03/23 11:54:27;;;;;;;5.85;2.17;;;;;;;19.84;35.53;99700.06;4383658;32;33506;-82
2023/03/23 11:56:54;;;;;;;4.28;2.30;;;;;;;19.80;36.22;99708.78;4392021;32;32957;-79
2023/03/23 11:59:32;;;;;;;5.97;2.15;;;;;;;20.02;34.95;99708.91;4412473;32;33896;-81
2023/03/23 12:02:20;;;;;;;5.82;2.28;;;;;;;20.51;34.34;99703.81;4420955;32;33531;-80
2023/03/23 12:05:03;;;;;;;3.65;1.75;;;;;;;21.28;33.73;99698.69;4392886;32;34699;-80
2023/03/23 12:07:47;;;;;;;5.47;2.03;;;;;;;21.53;33.10;99696.06;4413129;32;33489;-80
2023/03/23 12:10:25;;;;;;;3.08;1.75;;;;;;;21.58;33.10;99686.41;4412013;32;34076;-79
2023/03/23 12:13:11;;;;;;;4.45;1.85;;;;;;;21.91;32.77;99679.28;4382992;32;34557;-79
2023/03/23 12:15:56;;;;;;;3.58;2.12;;;;;;;22.10;33.53;99686.25;4400706;32;33635;-81
2023/03/23 12:18:28;;;;;;;4.62;1.75;;;;;;;21.89;32.67;99667.88;4404541;32;33441;-81
2023/03/23 12:21:27;;;;;;;3.67;1.80;;;;;;;22.24;32.38;99664.22;4432204;32;33750;-79
2023/03/23 12:24:04;;;;;;;3.95;2.12;;;;;;;22.50;32.25;99670.25;4414964;32;34448;-79
2023/03/23 12:26:32;;;;;;;5.95;1.92;;;;;;;22.05;31.99;99656.38;4411616;32;34661;-79
2023/03/23 12:29:23;;;;;;;6.03;2.17;;;;;;;22.17;32.26;99660.72;4439973;32;34523;-78
2023/03/23 12:32:13;;;;;;;8.60;2.35;;;;;;;21.80;32.36;99650.31;4432271;32;34165;-78
2023/03/23 12:35:05;;;;;;;3.90;1.90;;;;;;;21.74;32.80;99653.84;4393425;32;33640;-79
2023/03/23 12:37:35;;;;;;;5.05;2.22;;;;;;;22.02;32.22;99647.59;4423024;32;33606;-79
2023/03/23 12:40:30;;;;;;;3.70;2.05;;;;;;;21.89;32.37;99644.16;4389785;32;33568;-79
2023/03/23 12:43:21;;;;;;;4.07;2.08;;;;;;;22.58;32.50;99639.41;4371172;32;34098;-80
2023/03/23 12:46:16;;;;;;;4.55;1.83;;;;;;;22.00;31.43;99637.06;4401268;32;33625;-81
2023/03/23 12:48:53;;;;;;;5.35;2.22;;;;;;;22.18;32.64;99631.69;4414806;32;34302;-79
2023/03/23 12:51:19;;;;;;;4.07;1.95;;;;;;;21.77;32.22;99632.75;4395659;32;34034;-80